sensor_id;sensor_type;location;lat;lon;timestamp;P1;durP1;ratioP1;P2;durP2;ratioP2
49366;SDS011;35245;52.026;8.540;2022-08-19T00:01:17;9.60;;;5.80;;
49366;SDS011;35245;52.026;8.540;2022-08-19T00:03:44;9.15;;;5.10;;
49366;SDS011;35245;52.026;8.540;2022-08-19T00:06:12;10.05;;;5.45;;
49366;SDS011;35245;52.026;8.540;2022-08-19T00:08:40;11.30;;;6.90;;
49366;SDS011;35245;52.026;8.540;2022-08-19T00:11:08;11.05;;;6.93;;
49366;SDS011;35245;52.026;8.540;2022-08-19T00:13:35;13.60;;;7.10;;
49366;SDS011;35245;52.026;8.540;2022-08-19T00:16:03;7.63;;;6.20;;
49366;SDS011;35245;52.026;8.540;2022-08-19T00:18:31;11.13;;;6.28;;
49366;SDS011;35245;52.026;8.540;2022-08-19T00:20:58;13.27;;;6.20;;
49366;SDS011;35245;52.026;8.540;2022-08-19T00:23:25;14.90;;;7.32;;
49366;SDS011;35245;52.026;8.540;2022-08-19T00:25:54;11.10;;;6.78;;
49366;SDS011;35245;52.026;8.540;2022-08-19T00:28:21;11.82;;;7.18;;
49366;SDS011;35245;52.026;8.540;2022-08-19T00:30:48;12.88;;;6.70;;
49366;SDS011;35245;52.026;8.540;2022-08-19T00:33:16;10.45;;;6.68;;
49366;SDS011;35245;52.026;8.540;2022-08-19T00:35:43;12.15;;;7.20;;
49366;SDS011;35245;52.026;8.540;2022-08-19T00:38:10;11.13;;;6.93;;
49366;SDS011;35245;52.026;8.540;2022-08-19T00:40:37;13.32;;;7.20;;
49366;SDS011;35245;52.026;8.540;2022-08-19T00:43:09;9.93;;;7.25;;
49366;SDS011;35245;52.026;8.540;2022-08-19T00:45:38;10.25;;;6.68;;
49366;SDS011;35245;52.026;8.540;2022-08-19T00:48:07;10.65;;;7.18;;
49366;SDS011;35245;52.026;8.540;2022-08-19T00:50:34;7.70;;;6.03;;
49366;SDS011;35245;52.026;8.540;2022-08-19T00:53:01;11.05;;;7.57;;
49366;SDS011;35245;52.026;8.540;2022-08-19T00:55:29;12.63;;;7.65;;
49366;SDS011;35245;52.026;8.540;2022-08-19T00:57:58;11.15;;;6.55;;
49366;SDS011;35245;52.026;8.540;2022-08-19T01:00:28;10.35;;;7.22;;
49366;SDS011;35245;52.026;8.540;2022-08-19T01:02:55;11.50;;;7.68;;
49366;SDS011;35245;52.026;8.540;2022-08-19T01:05:24;11.20;;;8.30;;
49366;SDS011;35245;52.026;8.540;2022-08-19T01:07:53;12.35;;;8.52;;
49366;SDS011;35245;52.026;8.540;2022-08-19T01:10:22;12.43;;;7.97;;
49366;SDS011;35245;52.026;8.540;2022-08-19T01:12:52;13.60;;;8.95;;
49366;SDS011;35245;52.026;8.540;2022-08-19T01:15:22;12.23;;;8.52;;
49366;SDS011;35245;52.026;8.540;2022-08-19T01:17:52;13.55;;;8.93;;
49366;SDS011;35245;52.026;8.540;2022-08-19T01:20:20;13.25;;;7.95;;
49366;SDS011;35245;52.026;8.540;2022-08-19T01:22:50;12.80;;;9.00;;
49366;SDS011;35245;52.026;8.540;2022-08-19T01:25:20;10.90;;;8.32;;
49366;SDS011;35245;52.026;8.540;2022-08-19T01:27:49;17.00;;;9.93;;
49366;SDS011;35245;52.026;8.540;2022-08-19T01:30:18;13.25;;;8.50;;
49366;SDS011;35245;52.026;8.540;2022-08-19T01:32:47;15.50;;;10.30;;
49366;SDS011;35245;52.026;8.540;2022-08-19T01:35:15;12.63;;;8.98;;
49366;SDS011;35245;52.026;8.540;2022-08-19T01:37:44;14.00;;;9.68;;
49366;SDS011;35245;52.026;8.540;2022-08-19T01:40:14;18.25;;;10.95;;
49366;SDS011;35245;52.026;8.540;2022-08-19T01:42:41;16.75;;;9.43;;
49366;SDS011;35245;52.026;8.540;2022-08-19T01:45:08;14.55;;;9.23;;
49366;SDS011;35245;52.026;8.540;2022-08-19T01:47:36;14.52;;;9.40;;
49366;SDS011;35245;52.026;8.540;2022-08-19T01:50:04;14.90;;;10.18;;
49366;SDS011;35245;52.026;8.540;2022-08-19T01:52:35;13.80;;;9.70;;
49366;SDS011;35245;52.026;8.540;2022-08-19T01:55:02;13.55;;;9.90;;
49366;SDS011;35245;52.026;8.540;2022-08-19T01:57:32;12.20;;;9.18;;
49366;SDS011;35245;52.026;8.540;2022-08-19T01:59:59;14.85;;;10.15;;
49366;SDS011;35245;52.026;8.540;2022-08-19T02:02:29;12.13;;;9.75;;
49366;SDS011;35245;52.026;8.540;2022-08-19T02:04:56;13.00;;;8.93;;
49366;SDS011;35245;52.026;8.540;2022-08-19T02:07:26;11.95;;;8.77;;
49366;SDS011;35245;52.026;8.540;2022-08-19T02:09:53;15.30;;;10.77;;
49366;SDS011;35245;52.026;8.540;2022-08-19T02:12:21;16.95;;;10.90;;
49366;SDS011;35245;52.026;8.540;2022-08-19T02:14:49;15.25;;;9.88;;
49366;SDS011;35245;52.026;8.540;2022-08-19T02:17:16;16.98;;;11.27;;
49366;SDS011;35245;52.026;8.540;2022-08-19T02:19:44;18.40;;;11.20;;
49366;SDS011;35245;52.026;8.540;2022-08-19T02:22:11;15.63;;;10.93;;
49366;SDS011;35245;52.026;8.540;2022-08-19T02:24:38;15.57;;;10.30;;
49366;SDS011;35245;52.026;8.540;2022-08-19T02:27:05;11.98;;;10.00;;
49366;SDS011;35245;52.026;8.540;2022-08-19T02:29:32;16.25;;;10.65;;
49366;SDS011;35245;52.026;8.540;2022-08-19T02:32:00;13.07;;;9.75;;
49366;SDS011;35245;52.026;8.540;2022-08-19T02:34:29;17.00;;;11.70;;
49366;SDS011;35245;52.026;8.540;2022-08-19T02:36:56;17.23;;;11.77;;
49366;SDS011;35245;52.026;8.540;2022-08-19T02:39:23;16.13;;;11.05;;
49366;SDS011;35245;52.026;8.540;2022-08-19T02:41:49;17.45;;;11.57;;
49366;SDS011;35245;52.026;8.540;2022-08-19T02:44:17;16.70;;;11.68;;
49366;SDS011;35245;52.026;8.540;2022-08-19T02:46:44;17.95;;;12.23;;
49366;SDS011;35245;52.026;8.540;2022-08-19T02:49:14;17.13;;;13.05;;
49366;SDS011;35245;52.026;8.540;2022-08-19T02:51:42;21.98;;;14.32;;
49366;SDS011;35245;52.026;8.540;2022-08-19T02:54:11;20.35;;;14.45;;
49366;SDS011;35245;52.026;8.540;2022-08-19T02:56:39;16.48;;;13.68;;
49366;SDS011;35245;52.026;8.540;2022-08-19T02:59:07;15.38;;;12.75;;
49366;SDS011;35245;52.026;8.540;2022-08-19T03:01:35;18.27;;;14.95;;
49366;SDS011;35245;52.026;8.540;2022-08-19T03:04:03;19.70;;;15.38;;
49366;SDS011;35245;52.026;8.540;2022-08-19T03:06:34;20.25;;;15.57;;
49366;SDS011;35245;52.026;8.540;2022-08-19T03:11:30;21.83;;;16.05;;
49366;SDS011;35245;52.026;8.540;2022-08-19T03:14:00;21.38;;;16.00;;
49366;SDS011;35245;52.026;8.540;2022-08-19T03:16:28;23.55;;;17.30;;
49366;SDS011;35245;52.026;8.540;2022-08-19T03:18:56;21.85;;;15.13;;
49366;SDS011;35245;52.026;8.540;2022-08-19T03:21:25;21.92;;;15.68;;
49366;SDS011;35245;52.026;8.540;2022-08-19T03:23:55;18.90;;;14.18;;
49366;SDS011;35245;52.026;8.540;2022-08-19T03:26:23;18.30;;;13.90;;
49366;SDS011;35245;52.026;8.540;2022-08-19T03:28:50;20.13;;;14.40;;
49366;SDS011;35245;52.026;8.540;2022-08-19T03:31:18;18.02;;;14.07;;
49366;SDS011;35245;52.026;8.540;2022-08-19T03:33:46;18.95;;;13.73;;
49366;SDS011;35245;52.026;8.540;2022-08-19T03:36:15;19.65;;;13.85;;
49366;SDS011;35245;52.026;8.540;2022-08-19T03:38:44;20.35;;;14.70;;
49366;SDS011;35245;52.026;8.540;2022-08-19T03:41:16;17.67;;;13.30;;
49366;SDS011;35245;52.026;8.540;2022-08-19T03:43:44;19.52;;;14.88;;
49366;SDS011;35245;52.026;8.540;2022-08-19T03:46:13;19.13;;;14.85;;
49366;SDS011;35245;52.026;8.540;2022-08-19T03:48:41;20.88;;;14.45;;
49366;SDS011;35245;52.026;8.540;2022-08-19T03:51:15;17.95;;;13.82;;
49366;SDS011;35245;52.026;8.540;2022-08-19T03:53:42;17.20;;;14.15;;
49366;SDS011;35245;52.026;8.540;2022-08-19T03:56:12;23.00;;;15.63;;
49366;SDS011;35245;52.026;8.540;2022-08-19T03:58:40;18.15;;;12.77;;
49366;SDS011;35245;52.026;8.540;2022-08-19T04:01:08;20.00;;;15.68;;
49366;SDS011;35245;52.026;8.540;2022-08-19T04:03:36;17.85;;;14.05;;
49366;SDS011;35245;52.026;8.540;2022-08-19T04:06:09;20.45;;;14.13;;
49366;SDS011;35245;52.026;8.540;2022-08-19T04:08:37;21.25;;;14.35;;
49366;SDS011;35245;52.026;8.540;2022-08-19T04:11:06;16.65;;;13.40;;
49366;SDS011;35245;52.026;8.540;2022-08-19T04:13:34;17.88;;;13.30;;
49366;SDS011;35245;52.026;8.540;2022-08-19T04:16:02;20.38;;;14.13;;
49366;SDS011;35245;52.026;8.540;2022-08-19T04:18:30;16.42;;;11.82;;
49366;SDS011;35245;52.026;8.540;2022-08-19T04:20:57;18.42;;;12.57;;
49366;SDS011;35245;52.026;8.540;2022-08-19T04:23:25;15.73;;;12.20;;
49366;SDS011;35245;52.026;8.540;2022-08-19T04:25:53;14.35;;;9.60;;
49366;SDS011;35245;52.026;8.540;2022-08-19T04:28:20;13.40;;;8.48;;
49366;SDS011;35245;52.026;8.540;2022-08-19T04:30:49;12.45;;;8.48;;
49366;SDS011;35245;52.026;8.540;2022-08-19T04:33:20;10.75;;;7.95;;
49366;SDS011;35245;52.026;8.540;2022-08-19T04:35:49;14.65;;;8.88;;
49366;SDS011;35245;52.026;8.540;2022-08-19T04:38:20;11.15;;;7.60;;
49366;SDS011;35245;52.026;8.540;2022-08-19T04:40:49;11.65;;;8.45;;
49366;SDS011;35245;52.026;8.540;2022-08-19T04:43:35;20.30;;;9.30;;
49366;SDS011;35245;52.026;8.540;2022-08-19T04:46:05;19.47;;;9.27;;
49366;SDS011;35245;52.026;8.540;2022-08-19T04:48:34;17.02;;;8.80;;
49366;SDS011;35245;52.026;8.540;2022-08-19T04:51:05;11.73;;;8.18;;
49366;SDS011;35245;52.026;8.540;2022-08-19T04:53:33;11.45;;;7.90;;
49366;SDS011;35245;52.026;8.540;2022-08-19T04:56:03;14.10;;;8.77;;
49366;SDS011;35245;52.026;8.540;2022-08-19T04:58:32;17.52;;;9.35;;
49366;SDS011;35245;52.026;8.540;2022-08-19T05:01:00;12.35;;;8.55;;
49366;SDS011;35245;52.026;8.540;2022-08-19T05:03:27;12.88;;;8.82;;
49366;SDS011;35245;52.026;8.540;2022-08-19T05:08:26;13.75;;;8.93;;
49366;SDS011;35245;52.026;8.540;2022-08-19T05:10:53;15.20;;;9.25;;
49366;SDS011;35245;52.026;8.540;2022-08-19T05:13:22;14.68;;;9.25;;
49366;SDS011;35245;52.026;8.540;2022-08-19T05:15:53;13.95;;;8.88;;
49366;SDS011;35245;52.026;8.540;2022-08-19T05:18:20;14.93;;;8.60;;
49366;SDS011;35245;52.026;8.540;2022-08-19T05:21:07;12.40;;;8.27;;
49366;SDS011;35245;52.026;8.540;2022-08-19T05:23:51;9.55;;;6.95;;
49366;SDS011;35245;52.026;8.540;2022-08-19T05:26:18;13.10;;;8.18;;
49366;SDS011;35245;52.026;8.540;2022-08-19T05:28:45;9.07;;;7.18;;
49366;SDS011;35245;52.026;8.540;2022-08-19T05:31:12;11.98;;;7.53;;
49366;SDS011;35245;52.026;8.540;2022-08-19T05:33:40;11.43;;;7.47;;
49366;SDS011;35245;52.026;8.540;2022-08-19T05:36:08;12.88;;;7.70;;
49366;SDS011;35245;52.026;8.540;2022-08-19T05:38:35;9.38;;;6.90;;
49366;SDS011;35245;52.026;8.540;2022-08-19T05:41:05;10.13;;;6.45;;
49366;SDS011;35245;52.026;8.540;2022-08-19T05:43:33;10.93;;;7.57;;
49366;SDS011;35245;52.026;8.540;2022-08-19T05:46:00;10.60;;;6.90;;
49366;SDS011;35245;52.026;8.540;2022-08-19T05:48:29;11.80;;;7.60;;
49366;SDS011;35245;52.026;8.540;2022-08-19T05:50:56;13.77;;;8.52;;
49366;SDS011;35245;52.026;8.540;2022-08-19T05:53:25;13.57;;;8.05;;
49366;SDS011;35245;52.026;8.540;2022-08-19T05:55:52;10.60;;;7.07;;
49366;SDS011;35245;52.026;8.540;2022-08-19T05:58:19;9.73;;;6.63;;
49366;SDS011;35245;52.026;8.540;2022-08-19T06:00:47;15.30;;;6.30;;
49366;SDS011;35245;52.026;8.540;2022-08-19T06:03:14;9.80;;;6.75;;
49366;SDS011;35245;52.026;8.540;2022-08-19T06:05:41;12.25;;;6.30;;
49366;SDS011;35245;52.026;8.540;2022-08-19T06:08:08;11.20;;;5.50;;
49366;SDS011;35245;52.026;8.540;2022-08-19T06:10:37;10.88;;;6.28;;
49366;SDS011;35245;52.026;8.540;2022-08-19T06:13:04;10.75;;;5.80;;
49366;SDS011;35245;52.026;8.540;2022-08-19T06:15:31;11.98;;;5.70;;
49366;SDS011;35245;52.026;8.540;2022-08-19T06:17:58;8.63;;;5.18;;
49366;SDS011;35245;52.026;8.540;2022-08-19T06:20:26;8.13;;;5.13;;
49366;SDS011;35245;52.026;8.540;2022-08-19T06:22:53;19.45;;;6.60;;
49366;SDS011;35245;52.026;8.540;2022-08-19T06:25:20;12.07;;;4.85;;
49366;SDS011;35245;52.026;8.540;2022-08-19T06:27:49;5.68;;;4.55;;
49366;SDS011;35245;52.026;8.540;2022-08-19T06:30:16;9.00;;;5.80;;
49366;SDS011;35245;52.026;8.540;2022-08-19T06:32:43;9.43;;;5.85;;
49366;SDS011;35245;52.026;8.540;2022-08-19T06:35:10;10.82;;;5.78;;
49366;SDS011;35245;52.026;8.540;2022-08-19T06:37:39;8.18;;;5.65;;
49366;SDS011;35245;52.026;8.540;2022-08-19T06:40:08;8.20;;;5.60;;
49366;SDS011;35245;52.026;8.540;2022-08-19T06:42:36;8.68;;;6.03;;
49366;SDS011;35245;52.026;8.540;2022-08-19T06:45:06;9.05;;;5.78;;
49366;SDS011;35245;52.026;8.540;2022-08-19T06:47:35;9.60;;;5.55;;
49366;SDS011;35245;52.026;8.540;2022-08-19T06:50:03;10.50;;;6.22;;
49366;SDS011;35245;52.026;8.540;2022-08-19T06:52:32;12.30;;;5.88;;
49366;SDS011;35245;52.026;8.540;2022-08-19T06:55:00;8.35;;;5.20;;
49366;SDS011;35245;52.026;8.540;2022-08-19T06:57:28;7.38;;;4.65;;
49366;SDS011;35245;52.026;8.540;2022-08-19T06:59:57;7.13;;;4.82;;
49366;SDS011;35245;52.026;8.540;2022-08-19T07:02:26;10.52;;;4.70;;
49366;SDS011;35245;52.026;8.540;2022-08-19T07:04:53;8.93;;;5.00;;
49366;SDS011;35245;52.026;8.540;2022-08-19T07:07:22;8.82;;;5.25;;
49366;SDS011;35245;52.026;8.540;2022-08-19T07:09:50;6.97;;;4.72;;
49366;SDS011;35245;52.026;8.540;2022-08-19T07:12:18;7.75;;;4.97;;
49366;SDS011;35245;52.026;8.540;2022-08-19T07:14:45;5.72;;;4.10;;
49366;SDS011;35245;52.026;8.540;2022-08-19T07:17:14;8.48;;;5.10;;
49366;SDS011;35245;52.026;8.540;2022-08-19T07:19:42;8.60;;;4.97;;
49366;SDS011;35245;52.026;8.540;2022-08-19T07:22:10;7.13;;;4.63;;
49366;SDS011;35245;52.026;8.540;2022-08-19T07:24:37;7.97;;;5.40;;
49366;SDS011;35245;52.026;8.540;2022-08-19T07:27:05;9.82;;;6.05;;
49366;SDS011;35245;52.026;8.540;2022-08-19T07:29:35;7.13;;;5.35;;
49366;SDS011;35245;52.026;8.540;2022-08-19T07:32:03;8.45;;;5.40;;
49366;SDS011;35245;52.026;8.540;2022-08-19T07:34:31;9.23;;;5.10;;
49366;SDS011;35245;52.026;8.540;2022-08-19T07:37:00;9.45;;;5.80;;
49366;SDS011;35245;52.026;8.540;2022-08-19T07:39:30;9.65;;;5.35;;
49366;SDS011;35245;52.026;8.540;2022-08-19T07:41:59;10.10;;;5.25;;
49366;SDS011;35245;52.026;8.540;2022-08-19T07:44:27;8.02;;;4.57;;
49366;SDS011;35245;52.026;8.540;2022-08-19T07:46:55;7.63;;;5.05;;
49366;SDS011;35245;52.026;8.540;2022-08-19T07:49:25;8.18;;;5.43;;
49366;SDS011;35245;52.026;8.540;2022-08-19T07:51:54;8.82;;;5.78;;
49366;SDS011;35245;52.026;8.540;2022-08-19T07:54:25;9.30;;;6.32;;
49366;SDS011;35245;52.026;8.540;2022-08-19T07:56:53;8.02;;;5.50;;
49366;SDS011;35245;52.026;8.540;2022-08-19T07:59:20;10.45;;;5.28;;
49366;SDS011;35245;52.026;8.540;2022-08-19T08:01:48;8.07;;;5.53;;
49366;SDS011;35245;52.026;8.540;2022-08-19T08:04:15;11.57;;;6.43;;
49366;SDS011;35245;52.026;8.540;2022-08-19T08:07:00;9.52;;;6.20;;
49366;SDS011;35245;52.026;8.540;2022-08-19T08:09:46;9.20;;;6.10;;
49366;SDS011;35245;52.026;8.540;2022-08-19T08:12:14;12.70;;;6.57;;
49366;SDS011;35245;52.026;8.540;2022-08-19T08:14:44;9.25;;;5.80;;
49366;SDS011;35245;52.026;8.540;2022-08-19T08:17:13;9.18;;;6.05;;
49366;SDS011;35245;52.026;8.540;2022-08-19T08:19:41;9.43;;;6.85;;
49366;SDS011;35245;52.026;8.540;2022-08-19T08:22:09;10.68;;;6.78;;
49366;SDS011;35245;52.026;8.540;2022-08-19T08:24:59;8.13;;;6.20;;
49366;SDS011;35245;52.026;8.540;2022-08-19T08:29:56;8.75;;;5.75;;
49366;SDS011;35245;52.026;8.540;2022-08-19T08:32:23;7.18;;;5.40;;
49366;SDS011;35245;52.026;8.540;2022-08-19T08:34:50;8.40;;;5.78;;
49366;SDS011;35245;52.026;8.540;2022-08-19T08:37:17;8.60;;;5.30;;
49366;SDS011;35245;52.026;8.540;2022-08-19T08:39:47;8.15;;;5.70;;
49366;SDS011;35245;52.026;8.540;2022-08-19T08:42:17;6.93;;;4.80;;
49366;SDS011;35245;52.026;8.540;2022-08-19T08:44:48;9.20;;;5.07;;
49366;SDS011;35245;52.026;8.540;2022-08-19T08:47:19;8.55;;;4.90;;
49366;SDS011;35245;52.026;8.540;2022-08-19T08:49:48;5.88;;;4.55;;
49366;SDS011;35245;52.026;8.540;2022-08-19T08:52:18;6.47;;;4.18;;
49366;SDS011;35245;52.026;8.540;2022-08-19T08:54:49;5.53;;;4.43;;
49366;SDS011;35245;52.026;8.540;2022-08-19T08:57:27;5.72;;;4.10;;
49366;SDS011;35245;52.026;8.540;2022-08-19T08:59:57;5.60;;;4.05;;
49366;SDS011;35245;52.026;8.540;2022-08-19T09:02:29;6.07;;;4.50;;
49366;SDS011;35245;52.026;8.540;2022-08-19T09:04:56;6.50;;;4.20;;
49366;SDS011;35245;52.026;8.540;2022-08-19T09:07:26;6.53;;;4.03;;
49366;SDS011;35245;52.026;8.540;2022-08-19T09:10:09;8.38;;;4.95;;
49366;SDS011;35245;52.026;8.540;2022-08-19T09:13:04;5.50;;;3.90;;
49366;SDS011;35245;52.026;8.540;2022-08-19T09:15:35;6.75;;;3.38;;
49366;SDS011;35245;52.026;8.540;2022-08-19T09:18:05;4.68;;;3.03;;
49366;SDS011;35245;52.026;8.540;2022-08-19T09:20:32;6.45;;;3.72;;
49366;SDS011;35245;52.026;8.540;2022-08-19T09:22:59;6.53;;;3.30;;
49366;SDS011;35245;52.026;8.540;2022-08-19T09:25:26;6.43;;;3.80;;
49366;SDS011;35245;52.026;8.540;2022-08-19T09:27:55;6.03;;;3.53;;
49366;SDS011;35245;52.026;8.540;2022-08-19T09:30:24;6.20;;;3.75;;
49366;SDS011;35245;52.026;8.540;2022-08-19T09:32:53;7.15;;;4.85;;
49366;SDS011;35245;52.026;8.540;2022-08-19T09:35:21;7.78;;;5.30;;
49366;SDS011;35245;52.026;8.540;2022-08-19T09:37:49;5.88;;;3.47;;
49366;SDS011;35245;52.026;8.540;2022-08-19T09:40:16;7.45;;;3.88;;
49366;SDS011;35245;52.026;8.540;2022-08-19T09:42:44;6.20;;;3.40;;
49366;SDS011;35245;52.026;8.540;2022-08-19T09:45:13;4.45;;;3.60;;
49366;SDS011;35245;52.026;8.540;2022-08-19T09:47:40;5.68;;;3.97;;
49366;SDS011;35245;52.026;8.540;2022-08-19T09:50:08;6.25;;;3.50;;
49366;SDS011;35245;52.026;8.540;2022-08-19T09:52:36;5.78;;;3.90;;
49366;SDS011;35245;52.026;8.540;2022-08-19T09:55:03;4.40;;;3.72;;
49366;SDS011;35245;52.026;8.540;2022-08-19T09:57:30;3.75;;;3.17;;
49366;SDS011;35245;52.026;8.540;2022-08-19T09:59:58;4.38;;;3.20;;
49366;SDS011;35245;52.026;8.540;2022-08-19T10:02:26;5.85;;;3.35;;
49366;SDS011;35245;52.026;8.540;2022-08-19T10:04:53;5.38;;;3.50;;
49366;SDS011;35245;52.026;8.540;2022-08-19T10:07:38;5.00;;;3.25;;
49366;SDS011;35245;52.026;8.540;2022-08-19T10:10:06;3.88;;;3.35;;
49366;SDS011;35245;52.026;8.540;2022-08-19T10:12:34;4.93;;;3.53;;
49366;SDS011;35245;52.026;8.540;2022-08-19T10:15:02;5.05;;;3.55;;
49366;SDS011;35245;52.026;8.540;2022-08-19T10:17:30;6.30;;;2.88;;
49366;SDS011;35245;52.026;8.540;2022-08-19T10:19:58;6.63;;;3.25;;
49366;SDS011;35245;52.026;8.540;2022-08-19T10:22:25;3.80;;;2.80;;
49366;SDS011;35245;52.026;8.540;2022-08-19T10:24:52;7.18;;;3.33;;
49366;SDS011;35245;52.026;8.540;2022-08-19T10:27:20;4.18;;;3.47;;
49366;SDS011;35245;52.026;8.540;2022-08-19T10:29:47;5.75;;;2.95;;
49366;SDS011;35245;52.026;8.540;2022-08-19T10:32:13;3.22;;;2.55;;
49366;SDS011;35245;52.026;8.540;2022-08-19T10:34:42;4.05;;;2.70;;
49366;SDS011;35245;52.026;8.540;2022-08-19T10:37:09;5.25;;;2.75;;
49366;SDS011;35245;52.026;8.540;2022-08-19T10:39:36;4.78;;;2.30;;
49366;SDS011;35245;52.026;8.540;2022-08-19T10:42:04;4.63;;;2.67;;
49366;SDS011;35245;52.026;8.540;2022-08-19T10:44:32;2.45;;;1.75;;
49366;SDS011;35245;52.026;8.540;2022-08-19T10:47:00;3.35;;;2.10;;
49366;SDS011;35245;52.026;8.540;2022-08-19T10:49:27;3.30;;;2.05;;
49366;SDS011;35245;52.026;8.540;2022-08-19T10:51:56;4.00;;;2.28;;
49366;SDS011;35245;52.026;8.540;2022-08-19T10:54:40;3.13;;;2.00;;
49366;SDS011;35245;52.026;8.540;2022-08-19T10:57:25;3.17;;;2.10;;
49366;SDS011;35245;52.026;8.540;2022-08-19T10:59:54;3.40;;;1.88;;
49366;SDS011;35245;52.026;8.540;2022-08-19T11:02:22;3.22;;;2.08;;
49366;SDS011;35245;52.026;8.540;2022-08-19T11:04:49;2.72;;;2.03;;
49366;SDS011;35245;52.026;8.540;2022-08-19T11:07:18;3.10;;;2.38;;
49366;SDS011;35245;52.026;8.540;2022-08-19T11:09:46;4.50;;;2.45;;
49366;SDS011;35245;52.026;8.540;2022-08-19T11:12:13;4.82;;;2.42;;
49366;SDS011;35245;52.026;8.540;2022-08-19T11:14:40;3.20;;;2.35;;
49366;SDS011;35245;52.026;8.540;2022-08-19T11:17:07;4.50;;;2.63;;
49366;SDS011;35245;52.026;8.540;2022-08-19T11:19:36;3.58;;;2.40;;
49366;SDS011;35245;52.026;8.540;2022-08-19T11:22:03;2.60;;;1.88;;
49366;SDS011;35245;52.026;8.540;2022-08-19T11:24:31;2.67;;;1.95;;
49366;SDS011;35245;52.026;8.540;2022-08-19T11:27:03;3.28;;;1.48;;
49366;SDS011;35245;52.026;8.540;2022-08-19T11:29:32;5.50;;;2.38;;
49366;SDS011;35245;52.026;8.540;2022-08-19T11:32:00;2.47;;;2.00;;
49366;SDS011;35245;52.026;8.540;2022-08-19T11:34:30;3.22;;;2.38;;
49366;SDS011;35245;52.026;8.540;2022-08-19T11:36:57;3.58;;;2.05;;
49366;SDS011;35245;52.026;8.540;2022-08-19T11:39:28;3.88;;;2.38;;
49366;SDS011;35245;52.026;8.540;2022-08-19T11:41:58;4.43;;;2.72;;
49366;SDS011;35245;52.026;8.540;2022-08-19T11:44:27;3.03;;;2.30;;
49366;SDS011;35245;52.026;8.540;2022-08-19T11:46:55;2.78;;;2.10;;
49366;SDS011;35245;52.026;8.540;2022-08-19T11:49:22;4.03;;;2.42;;
49366;SDS011;35245;52.026;8.540;2022-08-19T11:51:49;4.05;;;2.20;;
49366;SDS011;35245;52.026;8.540;2022-08-19T11:54:16;2.42;;;2.00;;
49366;SDS011;35245;52.026;8.540;2022-08-19T11:56:44;3.13;;;2.42;;
49366;SDS011;35245;52.026;8.540;2022-08-19T11:59:14;6.07;;;2.17;;
49366;SDS011;35245;52.026;8.540;2022-08-19T12:01:41;6.25;;;2.28;;
49366;SDS011;35245;52.026;8.540;2022-08-19T12:04:08;3.38;;;2.47;;
49366;SDS011;35245;52.026;8.540;2022-08-19T12:06:37;3.92;;;2.10;;
49366;SDS011;35245;52.026;8.540;2022-08-19T12:09:05;4.43;;;2.58;;
49366;SDS011;35245;52.026;8.540;2022-08-19T12:11:33;4.40;;;2.28;;
49366;SDS011;35245;52.026;8.540;2022-08-19T12:14:02;4.38;;;2.38;;
49366;SDS011;35245;52.026;8.540;2022-08-19T12:16:31;3.58;;;2.17;;
49366;SDS011;35245;52.026;8.540;2022-08-19T12:18:58;3.33;;;2.07;;
49366;SDS011;35245;52.026;8.540;2022-08-19T12:21:29;4.32;;;2.15;;
49366;SDS011;35245;52.026;8.540;2022-08-19T12:23:58;3.10;;;1.88;;
49366;SDS011;35245;52.026;8.540;2022-08-19T12:26:26;4.07;;;1.88;;
49366;SDS011;35245;52.026;8.540;2022-08-19T12:28:54;3.10;;;2.10;;
49366;SDS011;35245;52.026;8.540;2022-08-19T12:31:24;4.15;;;2.10;;
49366;SDS011;35245;52.026;8.540;2022-08-19T12:33:52;3.53;;;1.90;;
49366;SDS011;35245;52.026;8.540;2022-08-19T12:36:19;3.58;;;2.22;;
49366;SDS011;35245;52.026;8.540;2022-08-19T12:38:48;2.92;;;1.88;;
49366;SDS011;35245;52.026;8.540;2022-08-19T12:41:16;4.43;;;2.10;;
49366;SDS011;35245;52.026;8.540;2022-08-19T12:43:43;2.40;;;2.20;;
49366;SDS011;35245;52.026;8.540;2022-08-19T12:46:12;3.05;;;1.80;;
49366;SDS011;35245;52.026;8.540;2022-08-19T12:48:39;6.45;;;2.83;;
49366;SDS011;35245;52.026;8.540;2022-08-19T12:51:10;4.82;;;1.92;;
49366;SDS011;35245;52.026;8.540;2022-08-19T12:53:38;2.92;;;1.77;;
49366;SDS011;35245;52.026;8.540;2022-08-19T12:56:09;4.78;;;2.17;;
49366;SDS011;35245;52.026;8.540;2022-08-19T12:58:37;5.53;;;2.45;;
49366;SDS011;35245;52.026;8.540;2022-08-19T13:01:07;4.17;;;2.10;;
49366;SDS011;35245;52.026;8.540;2022-08-19T13:03:35;2.40;;;1.80;;
49366;SDS011;35245;52.026;8.540;2022-08-19T13:06:03;3.22;;;1.92;;
49366;SDS011;35245;52.026;8.540;2022-08-19T13:08:31;2.65;;;2.08;;
49366;SDS011;35245;52.026;8.540;2022-08-19T13:11:06;1.80;;;1.70;;
49366;SDS011;35245;52.026;8.540;2022-08-19T13:13:35;3.38;;;2.10;;
49366;SDS011;35245;52.026;8.540;2022-08-19T13:16:06;2.80;;;2.05;;
49366;SDS011;35245;52.026;8.540;2022-08-19T13:18:34;2.85;;;2.03;;
49366;SDS011;35245;52.026;8.540;2022-08-19T13:21:02;2.47;;;1.83;;
49366;SDS011;35245;52.026;8.540;2022-08-19T13:23:31;4.22;;;1.85;;
49366;SDS011;35245;52.026;8.540;2022-08-19T13:25:59;4.30;;;2.17;;
49366;SDS011;35245;52.026;8.540;2022-08-19T13:28:28;4.40;;;2.37;;
49366;SDS011;35245;52.026;8.540;2022-08-19T13:31:16;4.75;;;2.65;;
49366;SDS011;35245;52.026;8.540;2022-08-19T13:34:01;2.55;;;1.65;;
49366;SDS011;35245;52.026;8.540;2022-08-19T13:36:28;5.18;;;2.30;;
49366;SDS011;35245;52.026;8.540;2022-08-19T13:38:56;3.58;;;2.55;;
49366;SDS011;35245;52.026;8.540;2022-08-19T13:41:23;3.35;;;2.35;;
49366;SDS011;35245;52.026;8.540;2022-08-19T13:43:50;2.50;;;1.90;;
49366;SDS011;35245;52.026;8.540;2022-08-19T13:46:17;3.25;;;2.10;;
49366;SDS011;35245;52.026;8.540;2022-08-19T13:48:45;2.65;;;1.80;;
49366;SDS011;35245;52.026;8.540;2022-08-19T13:51:13;4.30;;;1.83;;
49366;SDS011;35245;52.026;8.540;2022-08-19T13:53:41;2.03;;;1.92;;
49366;SDS011;35245;52.026;8.540;2022-08-19T13:56:11;1.92;;;1.80;;
49366;SDS011;35245;52.026;8.540;2022-08-19T13:58:39;3.00;;;2.28;;
49366;SDS011;35245;52.026;8.540;2022-08-19T14:01:07;3.30;;;1.90;;
49366;SDS011;35245;52.026;8.540;2022-08-19T14:03:35;2.85;;;2.17;;
49366;SDS011;35245;52.026;8.540;2022-08-19T14:06:03;3.20;;;2.22;;
49366;SDS011;35245;52.026;8.540;2022-08-19T14:08:30;10.98;;;3.03;;
49366;SDS011;35245;52.026;8.540;2022-08-19T14:10:57;3.33;;;2.05;;
49366;SDS011;35245;52.026;8.540;2022-08-19T14:13:26;3.53;;;2.20;;
49366;SDS011;35245;52.026;8.540;2022-08-19T14:15:53;6.07;;;2.53;;
49366;SDS011;35245;52.026;8.540;2022-08-19T14:18:20;3.03;;;2.17;;
49366;SDS011;35245;52.026;8.540;2022-08-19T14:20:47;4.00;;;1.88;;
49366;SDS011;35245;52.026;8.540;2022-08-19T14:23:15;2.20;;;1.95;;
49366;SDS011;35245;52.026;8.540;2022-08-19T14:25:42;2.83;;;2.13;;
49366;SDS011;35245;52.026;8.540;2022-08-19T14:28:10;2.28;;;2.03;;
49366;SDS011;35245;52.026;8.540;2022-08-19T14:30:38;2.72;;;2.03;;
49366;SDS011;35245;52.026;8.540;2022-08-19T14:33:05;2.20;;;2.00;;
49366;SDS011;35245;52.026;8.540;2022-08-19T14:35:33;2.45;;;2.20;;
49366;SDS011;35245;52.026;8.540;2022-08-19T14:38:00;3.03;;;2.25;;
49366;SDS011;35245;52.026;8.540;2022-08-19T14:40:28;2.63;;;2.30;;
49366;SDS011;35245;52.026;8.540;2022-08-19T14:42:57;4.20;;;1.95;;
49366;SDS011;35245;52.026;8.540;2022-08-19T14:45:29;6.32;;;3.15;;
49366;SDS011;35245;52.026;8.540;2022-08-19T14:47:59;4.60;;;2.80;;
49366;SDS011;35245;52.026;8.540;2022-08-19T14:50:26;3.95;;;2.85;;
49366;SDS011;35245;52.026;8.540;2022-08-19T14:52:57;2.03;;;1.90;;
49366;SDS011;35245;52.026;8.540;2022-08-19T14:55:25;2.47;;;1.77;;
49366;SDS011;35245;52.026;8.540;2022-08-19T14:57:52;3.47;;;1.98;;